sensor_id;sensor_type;location;lat;lon;timestamp;P1;durP1;ratioP1;P2;durP2;ratioP2
5465;SDS011;2755;50.728;7.108;2023-04-24T00:01:29;1.37;;;0.90;;
5465;SDS011;2755;50.728;7.108;2023-04-24T00:03:56;1.20;;;1.00;;
5465;SDS011;2755;50.728;7.108;2023-04-24T00:06:24;0.70;;;0.60;;
5465;SDS011;2755;50.728;7.108;2023-04-24T00:08:58;0.70;;;0.60;;
5465;SDS011;2755;50.728;7.108;2023-04-24T00:11:27;1.00;;;0.90;;
5465;SDS011;2755;50.728;7.108;2023-04-24T00:13:52;0.93;;;0.70;;
5465;SDS011;2755;50.728;7.108;2023-04-24T00:16:18;0.70;;;0.70;;
5465;SDS011;2755;50.728;7.108;2023-04-24T00:18:44;0.87;;;0.73;;
5465;SDS011;2755;50.728;7.108;2023-04-24T00:21:10;0.80;;;0.70;;
5465;SDS011;2755;50.728;7.108;2023-04-24T00:23:36;1.33;;;0.80;;
5465;SDS011;2755;50.728;7.108;2023-04-24T00:26:02;0.80;;;0.60;;
5465;SDS011;2755;50.728;7.108;2023-04-24T00:28:28;0.80;;;0.80;;
5465;SDS011;2755;50.728;7.108;2023-04-24T00:30:53;2.30;;;0.50;;
5465;SDS011;2755;50.728;7.108;2023-04-24T00:33:19;1.10;;;0.67;;
5465;SDS011;2755;50.728;7.108;2023-04-24T00:35:45;0.70;;;0.70;;
5465;SDS011;2755;50.728;7.108;2023-04-24T00:38:11;0.90;;;0.70;;
5465;SDS011;2755;50.728;7.108;2023-04-24T00:40:37;0.90;;;0.80;;
5465;SDS011;2755;50.728;7.108;2023-04-24T00:43:03;1.23;;;0.77;;
5465;SDS011;2755;50.728;7.108;2023-04-24T00:45:28;1.00;;;0.90;;
5465;SDS011;2755;50.728;7.108;2023-04-24T00:47:56;1.10;;;0.60;;
5465;SDS011;2755;50.728;7.108;2023-04-24T00:50:23;0.80;;;0.63;;
5465;SDS011;2755;50.728;7.108;2023-04-24T00:52:49;0.93;;;0.70;;
5465;SDS011;2755;50.728;7.108;2023-04-24T00:55:16;0.83;;;0.60;;
5465;SDS011;2755;50.728;7.108;2023-04-24T00:57:42;1.00;;;0.70;;
5465;SDS011;2755;50.728;7.108;2023-04-24T01:00:09;0.80;;;0.60;;
5465;SDS011;2755;50.728;7.108;2023-04-24T01:02:39;1.23;;;0.77;;
5465;SDS011;2755;50.728;7.108;2023-04-24T01:05:09;2.43;;;0.90;;
5465;SDS011;2755;50.728;7.108;2023-04-24T01:07:35;0.70;;;0.60;;
5465;SDS011;2755;50.728;7.108;2023-04-24T01:10:01;1.27;;;0.60;;
5465;SDS011;2755;50.728;7.108;2023-04-24T01:12:26;1.40;;;0.63;;
5465;SDS011;2755;50.728;7.108;2023-04-24T01:14:52;0.80;;;0.70;;
5465;SDS011;2755;50.728;7.108;2023-04-24T01:17:19;1.33;;;0.50;;
5465;SDS011;2755;50.728;7.108;2023-04-24T01:19:46;0.73;;;0.70;;
5465;SDS011;2755;50.728;7.108;2023-04-24T01:22:14;1.00;;;0.70;;
5465;SDS011;2755;50.728;7.108;2023-04-24T01:24:41;1.40;;;0.80;;
5465;SDS011;2755;50.728;7.108;2023-04-24T01:27:07;1.00;;;0.90;;
5465;SDS011;2755;50.728;7.108;2023-04-24T01:29:33;5.00;;;0.80;;
5465;SDS011;2755;50.728;7.108;2023-04-24T01:32:00;0.80;;;0.80;;
5465;SDS011;2755;50.728;7.108;2023-04-24T01:34:26;1.00;;;0.90;;
5465;SDS011;2755;50.728;7.108;2023-04-24T01:36:51;1.27;;;1.03;;
5465;SDS011;2755;50.728;7.108;2023-04-24T01:39:17;2.53;;;1.07;;
5465;SDS011;2755;50.728;7.108;2023-04-24T01:41:45;2.43;;;0.90;;
5465;SDS011;2755;50.728;7.108;2023-04-24T01:44:11;1.10;;;1.00;;
5465;SDS011;2755;50.728;7.108;2023-04-24T01:46:36;1.17;;;1.07;;
5465;SDS011;2755;50.728;7.108;2023-04-24T01:49:03;1.27;;;1.07;;
5465;SDS011;2755;50.728;7.108;2023-04-24T01:51:28;5.13;;;1.40;;
5465;SDS011;2755;50.728;7.108;2023-04-24T01:53:55;1.53;;;1.43;;
5465;SDS011;2755;50.728;7.108;2023-04-24T01:56:21;1.20;;;1.10;;
5465;SDS011;2755;50.728;7.108;2023-04-24T01:58:47;1.70;;;1.17;;
5465;SDS011;2755;50.728;7.108;2023-04-24T02:01:20;1.47;;;1.37;;
5465;SDS011;2755;50.728;7.108;2023-04-24T02:03:46;1.40;;;1.30;;
5465;SDS011;2755;50.728;7.108;2023-04-24T02:06:11;2.03;;;1.30;;
5465;SDS011;2755;50.728;7.108;2023-04-24T02:08:37;1.30;;;1.17;;
5465;SDS011;2755;50.728;7.108;2023-04-24T02:11:03;1.50;;;1.30;;
5465;SDS011;2755;50.728;7.108;2023-04-24T02:13:28;2.50;;;1.50;;
5465;SDS011;2755;50.728;7.108;2023-04-24T02:15:54;2.20;;;2.00;;
5465;SDS011;2755;50.728;7.108;2023-04-24T02:18:19;3.27;;;2.30;;
5465;SDS011;2755;50.728;7.108;2023-04-24T02:20:45;3.60;;;2.37;;
5465;SDS011;2755;50.728;7.108;2023-04-24T02:23:11;3.50;;;2.30;;
5465;SDS011;2755;50.728;7.108;2023-04-24T02:25:38;3.47;;;2.73;;
5465;SDS011;2755;50.728;7.108;2023-04-24T02:28:03;6.03;;;2.73;;
5465;SDS011;2755;50.728;7.108;2023-04-24T02:30:29;3.23;;;2.53;;
5465;SDS011;2755;50.728;7.108;2023-04-24T02:32:55;2.77;;;2.40;;
5465;SDS011;2755;50.728;7.108;2023-04-24T02:35:21;5.50;;;2.80;;
5465;SDS011;2755;50.728;7.108;2023-04-24T02:37:47;3.23;;;2.27;;
5465;SDS011;2755;50.728;7.108;2023-04-24T02:40:13;3.20;;;2.30;;
5465;SDS011;2755;50.728;7.108;2023-04-24T02:42:38;3.73;;;2.40;;
5465;SDS011;2755;50.728;7.108;2023-04-24T02:45:04;3.97;;;2.60;;
5465;SDS011;2755;50.728;7.108;2023-04-24T02:47:30;3.40;;;2.70;;
5465;SDS011;2755;50.728;7.108;2023-04-24T02:49:56;4.33;;;3.33;;
5465;SDS011;2755;50.728;7.108;2023-04-24T02:52:22;6.00;;;2.77;;
5465;SDS011;2755;50.728;7.108;2023-04-24T02:54:47;3.73;;;3.10;;
5465;SDS011;2755;50.728;7.108;2023-04-24T02:57:13;3.87;;;2.60;;
5465;SDS011;2755;50.728;7.108;2023-04-24T02:59:39;5.77;;;3.73;;
5465;SDS011;2755;50.728;7.108;2023-04-24T03:02:05;4.80;;;3.27;;
5465;SDS011;2755;50.728;7.108;2023-04-24T03:04:31;3.80;;;3.40;;
5465;SDS011;2755;50.728;7.108;2023-04-24T03:06:57;5.97;;;3.10;;
5465;SDS011;2755;50.728;7.108;2023-04-24T03:09:22;4.43;;;3.23;;
5465;SDS011;2755;50.728;7.108;2023-04-24T03:11:48;6.07;;;3.77;;
5465;SDS011;2755;50.728;7.108;2023-04-24T03:14:14;5.47;;;4.60;;
5465;SDS011;2755;50.728;7.108;2023-04-24T03:16:40;6.53;;;4.07;;
5465;SDS011;2755;50.728;7.108;2023-04-24T03:19:06;9.73;;;4.07;;
5465;SDS011;2755;50.728;7.108;2023-04-24T03:21:31;5.10;;;3.60;;
5465;SDS011;2755;50.728;7.108;2023-04-24T03:23:57;5.63;;;4.77;;
5465;SDS011;2755;50.728;7.108;2023-04-24T03:26:23;6.30;;;4.30;;
5465;SDS011;2755;50.728;7.108;2023-04-24T03:28:49;6.83;;;4.33;;
5465;SDS011;2755;50.728;7.108;2023-04-24T03:31:15;8.97;;;4.10;;
5465;SDS011;2755;50.728;7.108;2023-04-24T03:33:41;5.57;;;3.93;;
5465;SDS011;2755;50.728;7.108;2023-04-24T03:36:07;6.40;;;4.40;;
5465;SDS011;2755;50.728;7.108;2023-04-24T03:38:33;4.80;;;3.83;;
5465;SDS011;2755;50.728;7.108;2023-04-24T03:40:59;5.20;;;2.73;;
5465;SDS011;2755;50.728;7.108;2023-04-24T03:43:24;4.40;;;3.13;;
5465;SDS011;2755;50.728;7.108;2023-04-24T03:45:52;4.70;;;3.30;;
5465;SDS011;2755;50.728;7.108;2023-04-24T03:48:18;5.10;;;3.73;;
5465;SDS011;2755;50.728;7.108;2023-04-24T03:50:43;4.67;;;3.67;;
5465;SDS011;2755;50.728;7.108;2023-04-24T03:53:09;4.60;;;3.70;;
5465;SDS011;2755;50.728;7.108;2023-04-24T03:55:35;4.23;;;3.80;;
5465;SDS011;2755;50.728;7.108;2023-04-24T03:58:00;6.43;;;3.67;;
5465;SDS011;2755;50.728;7.108;2023-04-24T04:00:26;10.10;;;4.03;;
5465;SDS011;2755;50.728;7.108;2023-04-24T04:02:52;5.10;;;3.13;;
5465;SDS011;2755;50.728;7.108;2023-04-24T04:05:18;3.60;;;3.13;;
5465;SDS011;2755;50.728;7.108;2023-04-24T04:07:44;5.83;;;3.57;;
5465;SDS011;2755;50.728;7.108;2023-04-24T04:10:10;4.87;;;3.70;;
5465;SDS011;2755;50.728;7.108;2023-04-24T04:12:35;4.30;;;3.83;;
5465;SDS011;2755;50.728;7.108;2023-04-24T04:15:01;4.97;;;3.07;;
5465;SDS011;2755;50.728;7.108;2023-04-24T04:17:27;4.23;;;3.83;;
5465;SDS011;2755;50.728;7.108;2023-04-24T04:19:52;4.90;;;3.70;;
5465;SDS011;2755;50.728;7.108;2023-04-24T04:22:18;3.60;;;3.00;;
5465;SDS011;2755;50.728;7.108;2023-04-24T04:24:43;6.30;;;3.67;;
5465;SDS011;2755;50.728;7.108;2023-04-24T04:27:09;6.03;;;3.90;;
5465;SDS011;2755;50.728;7.108;2023-04-24T04:29:35;4.93;;;3.87;;
5465;SDS011;2755;50.728;7.108;2023-04-24T04:32:01;5.23;;;3.67;;
5465;SDS011;2755;50.728;7.108;2023-04-24T04:34:27;6.00;;;3.53;;
5465;SDS011;2755;50.728;7.108;2023-04-24T04:36:54;3.50;;;2.90;;
5465;SDS011;2755;50.728;7.108;2023-04-24T04:39:20;5.57;;;3.90;;
5465;SDS011;2755;50.728;7.108;2023-04-24T04:41:46;4.90;;;3.60;;
5465;SDS011;2755;50.728;7.108;2023-04-24T04:44:14;3.90;;;3.40;;
5465;SDS011;2755;50.728;7.108;2023-04-24T04:46:39;7.57;;;3.97;;
5465;SDS011;2755;50.728;7.108;2023-04-24T04:49:06;5.13;;;3.53;;
5465;SDS011;2755;50.728;7.108;2023-04-24T04:51:33;5.63;;;3.73;;
5465;SDS011;2755;50.728;7.108;2023-04-24T04:53:59;5.50;;;4.33;;
5465;SDS011;2755;50.728;7.108;2023-04-24T04:56:25;5.17;;;3.60;;
5465;SDS011;2755;50.728;7.108;2023-04-24T04:58:51;6.40;;;3.27;;
5465;SDS011;2755;50.728;7.108;2023-04-24T05:01:16;4.63;;;3.17;;
5465;SDS011;2755;50.728;7.108;2023-04-24T05:03:42;8.70;;;3.40;;
5465;SDS011;2755;50.728;7.108;2023-04-24T05:06:08;4.70;;;3.70;;
5465;SDS011;2755;50.728;7.108;2023-04-24T05:08:34;4.97;;;3.20;;
5465;SDS011;2755;50.728;7.108;2023-04-24T05:11:00;4.47;;;3.67;;
5465;SDS011;2755;50.728;7.108;2023-04-24T05:13:25;3.30;;;2.97;;
5465;SDS011;2755;50.728;7.108;2023-04-24T05:15:51;8.00;;;3.20;;
5465;SDS011;2755;50.728;7.108;2023-04-24T05:18:17;4.67;;;3.80;;
5465;SDS011;2755;50.728;7.108;2023-04-24T05:20:43;4.87;;;3.30;;
5465;SDS011;2755;50.728;7.108;2023-04-24T05:23:09;6.10;;;3.50;;
5465;SDS011;2755;50.728;7.108;2023-04-24T05:25:35;3.70;;;3.20;;
5465;SDS011;2755;50.728;7.108;2023-04-24T05:28:01;5.03;;;3.13;;
5465;SDS011;2755;50.728;7.108;2023-04-24T05:30:27;6.33;;;3.00;;
5465;SDS011;2755;50.728;7.108;2023-04-24T05:32:53;4.27;;;3.00;;
5465;SDS011;2755;50.728;7.108;2023-04-24T05:35:18;2.70;;;2.50;;
5465;SDS011;2755;50.728;7.108;2023-04-24T05:37:44;2.97;;;2.67;;
5465;SDS011;2755;50.728;7.108;2023-04-24T05:40:10;3.60;;;2.50;;
5465;SDS011;2755;50.728;7.108;2023-04-24T05:42:39;4.50;;;3.77;;
5465;SDS011;2755;50.728;7.108;2023-04-24T05:45:05;5.83;;;3.77;;
5465;SDS011;2755;50.728;7.108;2023-04-24T05:47:31;8.83;;;4.10;;
5465;SDS011;2755;50.728;7.108;2023-04-24T05:49:56;3.70;;;2.90;;
5465;SDS011;2755;50.728;7.108;2023-04-24T05:52:22;4.33;;;3.10;;
5465;SDS011;2755;50.728;7.108;2023-04-24T05:54:48;4.90;;;3.70;;
5465;SDS011;2755;50.728;7.108;2023-04-24T05:57:14;4.53;;;3.03;;
5465;SDS011;2755;50.728;7.108;2023-04-24T05:59:40;3.30;;;3.00;;
5465;SDS011;2755;50.728;7.108;2023-04-24T06:02:06;6.60;;;3.00;;
5465;SDS011;2755;50.728;7.108;2023-04-24T06:04:32;4.27;;;3.30;;
5465;SDS011;2755;50.728;7.108;2023-04-24T06:06:58;5.43;;;3.10;;
5465;SDS011;2755;50.728;7.108;2023-04-24T06:09:24;4.37;;;3.10;;
5465;SDS011;2755;50.728;7.108;2023-04-24T06:11:50;4.37;;;3.43;;
5465;SDS011;2755;50.728;7.108;2023-04-24T06:14:21;7.37;;;3.60;;
5465;SDS011;2755;50.728;7.108;2023-04-24T06:16:47;5.33;;;3.40;;
5465;SDS011;2755;50.728;7.108;2023-04-24T06:19:12;5.10;;;3.50;;
5465;SDS011;2755;50.728;7.108;2023-04-24T06:21:38;5.97;;;3.60;;
5465;SDS011;2755;50.728;7.108;2023-04-24T06:24:04;4.40;;;4.00;;
5465;SDS011;2755;50.728;7.108;2023-04-24T06:26:31;4.33;;;3.23;;
5465;SDS011;2755;50.728;7.108;2023-04-24T06:28:56;5.80;;;3.50;;
5465;SDS011;2755;50.728;7.108;2023-04-24T06:31:24;6.20;;;3.67;;
5465;SDS011;2755;50.728;7.108;2023-04-24T06:33:49;7.43;;;3.63;;
5465;SDS011;2755;50.728;7.108;2023-04-24T06:36:15;6.67;;;3.77;;
5465;SDS011;2755;50.728;7.108;2023-04-24T06:38:41;4.47;;;2.87;;
5465;SDS011;2755;50.728;7.108;2023-04-24T06:41:06;6.83;;;4.77;;
5465;SDS011;2755;50.728;7.108;2023-04-24T06:43:32;3.93;;;3.10;;
5465;SDS011;2755;50.728;7.108;2023-04-24T06:45:59;5.17;;;3.60;;
5465;SDS011;2755;50.728;7.108;2023-04-24T06:48:25;4.83;;;3.30;;
5465;SDS011;2755;50.728;7.108;2023-04-24T06:50:51;5.43;;;4.30;;
5465;SDS011;2755;50.728;7.108;2023-04-24T06:53:17;3.50;;;2.73;;
5465;SDS011;2755;50.728;7.108;2023-04-24T06:55:43;7.83;;;3.70;;
5465;SDS011;2755;50.728;7.108;2023-04-24T06:58:10;3.47;;;3.10;;
5465;SDS011;2755;50.728;7.108;2023-04-24T07:00:37;6.17;;;3.30;;
5465;SDS011;2755;50.728;7.108;2023-04-24T07:03:03;4.33;;;3.20;;
5465;SDS011;2755;50.728;7.108;2023-04-24T07:05:30;3.33;;;3.03;;
5465;SDS011;2755;50.728;7.108;2023-04-24T07:07:56;4.53;;;3.73;;
5465;SDS011;2755;50.728;7.108;2023-04-24T07:10:23;4.10;;;3.10;;
5465;SDS011;2755;50.728;7.108;2023-04-24T07:12:49;5.37;;;3.30;;
5465;SDS011;2755;50.728;7.108;2023-04-24T07:15:15;3.20;;;2.90;;
5465;SDS011;2755;50.728;7.108;2023-04-24T07:17:41;4.37;;;2.97;;
5465;SDS011;2755;50.728;7.108;2023-04-24T07:20:10;4.10;;;3.00;;
5465;SDS011;2755;50.728;7.108;2023-04-24T07:22:39;4.23;;;3.33;;
5465;SDS011;2755;50.728;7.108;2023-04-24T07:25:05;5.27;;;2.53;;
5465;SDS011;2755;50.728;7.108;2023-04-24T07:27:31;3.60;;;2.73;;
5465;SDS011;2755;50.728;7.108;2023-04-24T07:29:58;7.83;;;2.43;;
5465;SDS011;2755;50.728;7.108;2023-04-24T07:32:23;5.10;;;2.87;;
5465;SDS011;2755;50.728;7.108;2023-04-24T07:34:49;3.10;;;2.40;;
5465;SDS011;2755;50.728;7.108;2023-04-24T07:37:14;2.67;;;2.47;;
5465;SDS011;2755;50.728;7.108;2023-04-24T07:39:40;3.37;;;2.63;;
5465;SDS011;2755;50.728;7.108;2023-04-24T07:42:06;2.33;;;2.00;;
5465;SDS011;2755;50.728;7.108;2023-04-24T07:44:32;3.00;;;1.80;;
5465;SDS011;2755;50.728;7.108;2023-04-24T07:46:57;2.80;;;2.00;;
5465;SDS011;2755;50.728;7.108;2023-04-24T07:49:23;2.33;;;1.93;;
5465;SDS011;2755;50.728;7.108;2023-04-24T07:51:49;2.30;;;1.80;;
5465;SDS011;2755;50.728;7.108;2023-04-24T07:54:15;2.30;;;1.70;;
5465;SDS011;2755;50.728;7.108;2023-04-24T07:56:41;5.23;;;2.37;;
5465;SDS011;2755;50.728;7.108;2023-04-24T07:59:08;6.10;;;2.23;;
5465;SDS011;2755;50.728;7.108;2023-04-24T08:01:35;2.37;;;2.10;;
5465;SDS011;2755;50.728;7.108;2023-04-24T08:04:01;3.43;;;2.30;;
5465;SDS011;2755;50.728;7.108;2023-04-24T08:06:27;2.93;;;1.70;;
5465;SDS011;2755;50.728;7.108;2023-04-24T08:08:55;1.80;;;1.60;;
5465;SDS011;2755;50.728;7.108;2023-04-24T08:11:21;1.30;;;1.20;;
5465;SDS011;2755;50.728;7.108;2023-04-24T08:13:47;1.40;;;1.30;;
5465;SDS011;2755;50.728;7.108;2023-04-24T08:16:12;6.40;;;1.47;;
5465;SDS011;2755;50.728;7.108;2023-04-24T08:18:39;1.90;;;1.50;;
5465;SDS011;2755;50.728;7.108;2023-04-24T08:21:05;1.50;;;1.40;;
5465;SDS011;2755;50.728;7.108;2023-04-24T08:23:31;1.67;;;1.57;;
5465;SDS011;2755;50.728;7.108;2023-04-24T08:25:56;2.20;;;1.77;;
5465;SDS011;2755;50.728;7.108;2023-04-24T08:28:22;1.90;;;1.70;;
5465;SDS011;2755;50.728;7.108;2023-04-24T08:30:48;2.60;;;2.07;;
5465;SDS011;2755;50.728;7.108;2023-04-24T08:33:19;4.20;;;1.90;;
5465;SDS011;2755;50.728;7.108;2023-04-24T08:35:45;3.53;;;1.80;;
5465;SDS011;2755;50.728;7.108;2023-04-24T08:38:11;2.00;;;1.80;;
5465;SDS011;2755;50.728;7.108;2023-04-24T08:40:37;3.30;;;2.10;;
5465;SDS011;2755;50.728;7.108;2023-04-24T08:43:03;4.37;;;1.93;;
5465;SDS011;2755;50.728;7.108;2023-04-24T08:45:29;4.70;;;2.17;;
5465;SDS011;2755;50.728;7.108;2023-04-24T08:47:55;1.40;;;1.30;;
5465;SDS011;2755;50.728;7.108;2023-04-24T08:50:22;3.50;;;2.30;;
5465;SDS011;2755;50.728;7.108;2023-04-24T08:52:49;2.40;;;1.90;;
5465;SDS011;2755;50.728;7.108;2023-04-24T08:55:16;12.33;;;2.07;;
5465;SDS011;2755;50.728;7.108;2023-04-24T08:57:43;4.70;;;2.10;;
5465;SDS011;2755;50.728;7.108;2023-04-24T09:00:10;2.20;;;1.93;;
5465;SDS011;2755;50.728;7.108;2023-04-24T09:02:36;3.67;;;2.67;;
5465;SDS011;2755;50.728;7.108;2023-04-24T09:05:06;6.20;;;2.63;;
5465;SDS011;2755;50.728;7.108;2023-04-24T09:07:32;3.00;;;2.40;;
5465;SDS011;2755;50.728;7.108;2023-04-24T09:10:01;3.40;;;2.80;;
5465;SDS011;2755;50.728;7.108;2023-04-24T09:12:27;3.73;;;3.03;;
5465;SDS011;2755;50.728;7.108;2023-04-24T09:14:53;5.90;;;3.10;;
5465;SDS011;2755;50.728;7.108;2023-04-24T09:17:20;4.50;;;3.20;;
5465;SDS011;2755;50.728;7.108;2023-04-24T09:19:47;12.33;;;3.60;;
5465;SDS011;2755;50.728;7.108;2023-04-24T09:22:13;4.00;;;3.03;;
5465;SDS011;2755;50.728;7.108;2023-04-24T09:24:40;3.00;;;2.67;;
5465;SDS011;2755;50.728;7.108;2023-04-24T09:27:06;3.20;;;2.67;;
5465;SDS011;2755;50.728;7.108;2023-04-24T09:29:32;4.33;;;3.50;;
5465;SDS011;2755;50.728;7.108;2023-04-24T09:31:58;4.27;;;3.80;;
5465;SDS011;2755;50.728;7.108;2023-04-24T09:34:24;5.37;;;4.07;;
5465;SDS011;2755;50.728;7.108;2023-04-24T09:36:51;4.87;;;3.70;;
5465;SDS011;2755;50.728;7.108;2023-04-24T09:39:17;5.47;;;3.90;;
5465;SDS011;2755;50.728;7.108;2023-04-24T09:41:48;5.80;;;4.23;;
5465;SDS011;2755;50.728;7.108;2023-04-24T09:44:18;6.27;;;4.20;;
5465;SDS011;2755;50.728;7.108;2023-04-24T09:46:54;7.50;;;4.50;;
5465;SDS011;2755;50.728;7.108;2023-04-24T09:49:28;6.90;;;3.97;;
5465;SDS011;2755;50.728;7.108;2023-04-24T09:52:04;6.27;;;3.27;;
5465;SDS011;2755;50.728;7.108;2023-04-24T09:54:30;5.53;;;3.10;;
5465;SDS011;2755;50.728;7.108;2023-04-24T09:56:56;4.97;;;3.30;;
5465;SDS011;2755;50.728;7.108;2023-04-24T09:59:22;5.93;;;3.60;;
5465;SDS011;2755;50.728;7.108;2023-04-24T10:01:48;7.47;;;4.07;;
5465;SDS011;2755;50.728;7.108;2023-04-24T10:06:43;5.93;;;3.60;;
5465;SDS011;2755;50.728;7.108;2023-04-24T10:09:09;11.13;;;3.23;;
5465;SDS011;2755;50.728;7.108;2023-04-24T10:11:37;6.40;;;3.47;;
5465;SDS011;2755;50.728;7.108;2023-04-24T10:14:03;6.50;;;4.20;;
5465;SDS011;2755;50.728;7.108;2023-04-24T10:16:29;11.93;;;4.33;;
5465;SDS011;2755;50.728;7.108;2023-04-24T10:18:56;9.20;;;4.93;;
5465;SDS011;2755;50.728;7.108;2023-04-24T10:21:25;9.70;;;4.40;;
5465;SDS011;2755;50.728;7.108;2023-04-24T10:23:51;11.03;;;4.70;;
5465;SDS011;2755;50.728;7.108;2023-04-24T10:26:18;5.47;;;3.83;;
5465;SDS011;2755;50.728;7.108;2023-04-24T10:28:45;13.17;;;4.07;;
5465;SDS011;2755;50.728;7.108;2023-04-24T10:31:11;10.07;;;3.50;;
5465;SDS011;2755;50.728;7.108;2023-04-24T10:33:40;10.83;;;3.77;;
5465;SDS011;2755;50.728;7.108;2023-04-24T10:36:07;5.27;;;3.50;;
5465;SDS011;2755;50.728;7.108;2023-04-24T10:38:35;4.20;;;3.07;;
5465;SDS011;2755;50.728;7.108;2023-04-24T10:41:12;5.80;;;3.40;;
5465;SDS011;2755;50.728;7.108;2023-04-24T10:43:44;3.07;;;2.60;;
5465;SDS011;2755;50.728;7.108;2023-04-24T10:46:10;7.40;;;3.30;;
5465;SDS011;2755;50.728;7.108;2023-04-24T10:48:42;9.10;;;3.93;;
5465;SDS011;2755;50.728;7.108;2023-04-24T10:51:12;7.20;;;4.27;;
5465;SDS011;2755;50.728;7.108;2023-04-24T10:53:39;6.40;;;3.83;;
5465;SDS011;2755;50.728;7.108;2023-04-24T11:03:59;8.53;;;4.17;;
5465;SDS011;2755;50.728;7.108;2023-04-24T11:06:31;10.37;;;5.10;;
5465;SDS011;2755;50.728;7.108;2023-04-24T11:09:17;8.00;;;4.70;;
5465;SDS011;2755;50.728;7.108;2023-04-24T11:11:46;7.33;;;4.73;;
5465;SDS011;2755;50.728;7.108;2023-04-24T11:14:15;12.03;;;5.20;;
5465;SDS011;2755;50.728;7.108;2023-04-24T11:16:42;8.93;;;4.93;;
5465;SDS011;2755;50.728;7.108;2023-04-24T11:22:02;13.70;;;6.40;;
5465;SDS011;2755;50.728;7.108;2023-04-24T11:24:39;7.50;;;4.60;;
5465;SDS011;2755;50.728;7.108;2023-04-24T11:27:17;9.07;;;4.50;;
5465;SDS011;2755;50.728;7.108;2023-04-24T11:32:14;10.57;;;5.67;;
5465;SDS011;2755;50.728;7.108;2023-04-24T11:34:48;10.60;;;5.67;;
5465;SDS011;2755;50.728;7.108;2023-04-24T11:37:14;10.37;;;5.67;;
5465;SDS011;2755;50.728;7.108;2023-04-24T11:39:41;7.77;;;4.53;;
5465;SDS011;2755;50.728;7.108;2023-04-24T11:42:06;9.00;;;4.87;;
5465;SDS011;2755;50.728;7.108;2023-04-24T11:44:33;12.63;;;5.27;;
5465;SDS011;2755;50.728;7.108;2023-04-24T11:46:59;8.80;;;4.30;;
5465;SDS011;2755;50.728;7.108;2023-04-24T11:49:25;12.07;;;4.37;;
5465;SDS011;2755;50.728;7.108;2023-04-24T11:51:54;6.40;;;3.90;;
5465;SDS011;2755;50.728;7.108;2023-04-24T11:54:20;10.53;;;4.00;;
5465;SDS011;2755;50.728;7.108;2023-04-24T11:56:47;11.50;;;4.67;;
5465;SDS011;2755;50.728;7.108;2023-04-24T11:59:13;12.13;;;4.20;;
5465;SDS011;2755;50.728;7.108;2023-04-24T12:04:11;8.30;;;4.00;;
5465;SDS011;2755;50.728;7.108;2023-04-24T12:06:37;9.27;;;4.17;;
5465;SDS011;2755;50.728;7.108;2023-04-24T12:09:03;5.67;;;3.50;;
5465;SDS011;2755;50.728;7.108;2023-04-24T12:11:29;6.60;;;3.20;;
5465;SDS011;2755;50.728;7.108;2023-04-24T12:13:54;5.87;;;3.43;;
5465;SDS011;2755;50.728;7.108;2023-04-24T12:16:20;8.10;;;3.50;;
5465;SDS011;2755;50.728;7.108;2023-04-24T12:18:45;8.60;;;3.60;;
5465;SDS011;2755;50.728;7.108;2023-04-24T12:21:15;7.37;;;3.37;;
5465;SDS011;2755;50.728;7.108;2023-04-24T12:23:45;7.40;;;3.63;;
5465;SDS011;2755;50.728;7.108;2023-04-24T12:26:12;4.37;;;3.10;;
5465;SDS011;2755;50.728;7.108;2023-04-24T12:28:46;6.67;;;3.53;;
5465;SDS011;2755;50.728;7.108;2023-04-24T12:31:13;9.63;;;4.10;;
5465;SDS011;2755;50.728;7.108;2023-04-24T12:33:41;11.27;;;4.20;;
5465;SDS011;2755;50.728;7.108;2023-04-24T12:36:09;7.50;;;3.53;;
5465;SDS011;2755;50.728;7.108;2023-04-24T12:38:35;11.60;;;3.87;;
5465;SDS011;2755;50.728;7.108;2023-04-24T12:41:06;12.50;;;3.27;;
5465;SDS011;2755;50.728;7.108;2023-04-24T12:43:33;12.23;;;5.40;;
5465;SDS011;2755;50.728;7.108;2023-04-24T12:46:00;12.03;;;3.70;;
5465;SDS011;2755;50.728;7.108;2023-04-24T12:48:26;10.77;;;4.47;;
5465;SDS011;2755;50.728;7.108;2023-04-24T12:50:52;9.93;;;4.90;;
5465;SDS011;2755;50.728;7.108;2023-04-24T12:53:18;10.20;;;3.70;;
5465;SDS011;2755;50.728;7.108;2023-04-24T12:55:44;8.77;;;3.93;;
5465;SDS011;2755;50.728;7.108;2023-04-24T12:58:11;10.47;;;4.00;;
5465;SDS011;2755;50.728;7.108;2023-04-24T13:00:38;12.50;;;3.90;;
5465;SDS011;2755;50.728;7.108;2023-04-24T13:03:04;8.03;;;3.40;;
5465;SDS011;2755;50.728;7.108;2023-04-24T13:05:29;6.03;;;3.50;;
5465;SDS011;2755;50.728;7.108;2023-04-24T13:07:56;10.90;;;3.80;;
5465;SDS011;2755;50.728;7.108;2023-04-24T13:10:22;11.93;;;3.77;;
5465;SDS011;2755;50.728;7.108;2023-04-24T13:12:48;10.57;;;3.10;;
5465;SDS011;2755;50.728;7.108;2023-04-24T13:15:13;7.43;;;3.53;;
5465;SDS011;2755;50.728;7.108;2023-04-24T13:17:40;9.50;;;3.77;;
5465;SDS011;2755;50.728;7.108;2023-04-24T13:20:05;13.77;;;3.63;;
5465;SDS011;2755;50.728;7.108;2023-04-24T13:22:31;6.60;;;3.27;;
5465;SDS011;2755;50.728;7.108;2023-04-24T13:24:57;5.87;;;2.70;;
5465;SDS011;2755;50.728;7.108;2023-04-24T13:27:24;3.70;;;2.73;;
5465;SDS011;2755;50.728;7.108;2023-04-24T13:29:50;7.07;;;2.67;;
5465;SDS011;2755;50.728;7.108;2023-04-24T13:32:16;9.30;;;3.13;;
5465;SDS011;2755;50.728;7.108;2023-04-24T13:34:42;8.63;;;3.10;;
5465;SDS011;2755;50.728;7.108;2023-04-24T13:37:08;4.83;;;2.70;;
5465;SDS011;2755;50.728;7.108;2023-04-24T13:39:34;10.60;;;2.87;;
5465;SDS011;2755;50.728;7.108;2023-04-24T13:42:00;8.40;;;2.97;;
5465;SDS011;2755;50.728;7.108;2023-04-24T13:44:26;6.63;;;3.90;;
5465;SDS011;2755;50.728;7.108;2023-04-24T13:46:53;7.50;;;2.70;;
5465;SDS011;2755;50.728;7.108;2023-04-24T13:49:21;11.13;;;3.30;;
5465;SDS011;2755;50.728;7.108;2023-04-24T13:51:49;9.77;;;3.53;;
5465;SDS011;2755;50.728;7.108;2023-04-24T13:54:15;8.33;;;3.13;;
5465;SDS011;2755;50.728;7.108;2023-04-24T13:56:41;6.67;;;3.50;;
5465;SDS011;2755;50.728;7.108;2023-04-24T13:59:07;6.57;;;2.70;;
5465;SDS011;2755;50.728;7.108;2023-04-24T14:01:33;5.20;;;2.53;;
5465;SDS011;2755;50.728;7.108;2023-04-24T14:03:59;4.47;;;2.50;;
5465;SDS011;2755;50.728;7.108;2023-04-24T14:06:25;7.83;;;3.63;;
5465;SDS011;2755;50.728;7.108;2023-04-24T14:08:51;6.37;;;3.83;;
5465;SDS011;2755;50.728;7.108;2023-04-24T14:11:17;15.87;;;3.90;;
5465;SDS011;2755;50.728;7.108;2023-04-24T14:13:43;9.00;;;3.70;;
5465;SDS011;2755;50.728;7.108;2023-04-24T14:16:09;8.50;;;3.83;;
5465;SDS011;2755;50.728;7.108;2023-04-24T14:18:35;14.73;;;4.70;;
5465;SDS011;2755;50.728;7.108;2023-04-24T14:21:02;7.23;;;4.83;;
5465;SDS011;2755;50.728;7.108;2023-04-24T14:23:28;14.83;;;5.23;;
5465;SDS011;2755;50.728;7.108;2023-04-24T14:25:54;9.23;;;5.50;;
5465;SDS011;2755;50.728;7.108;2023-04-24T14:28:20;13.03;;;5.67;;
5465;SDS011;2755;50.728;7.108;2023-04-24T14:30:46;6.80;;;4.80;;
5465;SDS011;2755;50.728;7.108;2023-04-24T14:33:12;11.80;;;5.83;;
5465;SDS011;2755;50.728;7.108;2023-04-24T14:35:39;9.90;;;5.57;;
5465;SDS011;2755;50.728;7.108;2023-04-24T14:38:05;13.67;;;5.97;;
5465;SDS011;2755;50.728;7.108;2023-04-24T14:40:31;9.40;;;5.67;;
5465;SDS011;2755;50.728;7.108;2023-04-24T14:42:57;7.57;;;4.73;;
5465;SDS011;2755;50.728;7.108;2023-04-24T14:45:26;10.87;;;5.47;;
5465;SDS011;2755;50.728;7.108;2023-04-24T14:47:52;12.63;;;5.40;;
5465;SDS011;2755;50.728;7.108;2023-04-24T14:50:18;8.43;;;3.83;;
5465;SDS011;2755;50.728;7.108;2023-04-24T14:52:44;5.70;;;3.73;;
5465;SDS011;2755;50.728;7.108;2023-04-24T14:55:10;5.30;;;4.30;;
5465;SDS011;2755;50.728;7.108;2023-04-24T14:57:35;8.97;;;4.03;;
5465;SDS011;2755;50.728;7.108;2023-04-24T15:00:02;8.07;;;4.67;;
5465;SDS011;2755;50.728;7.108;2023-04-24T15:02:31;13.70;;;3.93;;
5465;SDS011;2755;50.728;7.108;2023-04-24T15:04:57;7.80;;;4.13;;
5465;SDS011;2755;50.728;7.108;2023-04-24T15:07:23;10.53;;;3.60;;
5465;SDS011;2755;50.728;7.108;2023-04-24T15:09:49;8.43;;;4.40;;
5465;SDS011;2755;50.728;7.108;2023-04-24T15:12:15;8.43;;;3.73;;
5465;SDS011;2755;50.728;7.108;2023-04-24T15:14:41;8.33;;;3.77;;
5465;SDS011;2755;50.728;7.108;2023-04-24T15:17:07;9.83;;;3.47;;
5465;SDS011;2755;50.728;7.108;2023-04-24T15:19:32;5.73;;;3.30;;
5465;SDS011;2755;50.728;7.108;2023-04-24T15:21:58;6.13;;;3.50;;
5465;SDS011;2755;50.728;7.108;2023-04-24T15:24:24;6.97;;;3.40;;
5465;SDS011;2755;50.728;7.108;2023-04-24T15:26:50;5.97;;;3.30;;
5465;SDS011;2755;50.728;7.108;2023-04-24T15:29:15;9.00;;;4.60;;